sensor_id;sensor_type;location;lat;lon;timestamp;P1;durP1;ratioP1;P2;durP2;ratioP2
55672;SDS011;41554;45.366;20.400;2023-05-07T16:18:36;9.38;;;4.80;;
55672;SDS011;41554;45.366;20.400;2023-05-07T16:21:02;13.63;;;6.63;;
55672;SDS011;41554;45.366;20.400;2023-05-07T16:23:28;10.38;;;4.90;;
55672;SDS011;41554;45.366;20.400;2023-05-07T16:25:55;8.25;;;5.10;;
55672;SDS011;41554;45.366;20.400;2023-05-07T16:28:21;13.88;;;4.22;;
55672;SDS011;41554;45.366;20.400;2023-05-07T16:30:47;6.78;;;4.70;;
55672;SDS011;41554;45.366;20.400;2023-05-07T16:33:14;5.85;;;4.18;;
55672;SDS011;41554;45.366;20.400;2023-05-07T16:35:40;7.65;;;5.00;;
55672;SDS011;41554;45.366;20.400;2023-05-07T16:38:08;5.15;;;3.65;;
55672;SDS011;41554;45.366;20.400;2023-05-07T16:40:38;6.95;;;4.20;;
55672;SDS011;41554;45.366;20.400;2023-05-07T16:43:04;6.50;;;4.45;;
55672;SDS011;41554;45.366;20.400;2023-05-07T16:45:31;7.38;;;4.10;;
55672;SDS011;41554;45.366;20.400;2023-05-07T16:47:57;3.97;;;3.45;;
55672;SDS011;41554;45.366;20.400;2023-05-07T16:50:23;20.20;;;5.40;;
55672;SDS011;41554;45.366;20.400;2023-05-07T16:52:49;10.02;;;4.20;;
55672;SDS011;41554;45.366;20.400;2023-05-07T16:55:15;4.22;;;3.50;;
55672;SDS011;41554;45.366;20.400;2023-05-07T16:57:42;7.80;;;5.13;;
55672;SDS011;41554;45.366;20.400;2023-05-07T17:00:08;5.50;;;4.15;;
55672;SDS011;41554;45.366;20.400;2023-05-07T17:02:35;4.63;;;4.13;;
55672;SDS011;41554;45.366;20.400;2023-05-07T17:05:02;5.85;;;4.13;;
55672;SDS011;41554;45.366;20.400;2023-05-07T17:07:30;5.97;;;4.43;;
55672;SDS011;41554;45.366;20.400;2023-05-07T17:09:56;14.07;;;4.90;;
55672;SDS011;41554;45.366;20.400;2023-05-07T17:12:22;11.60;;;3.90;;
55672;SDS011;41554;45.366;20.400;2023-05-07T17:14:48;4.25;;;3.58;;
55672;SDS011;41554;45.366;20.400;2023-05-07T17:17:14;5.45;;;4.18;;
55672;SDS011;41554;45.366;20.400;2023-05-07T17:19:40;7.18;;;4.25;;
55672;SDS011;41554;45.366;20.400;2023-05-07T17:22:06;10.70;;;5.25;;
55672;SDS011;41554;45.366;20.400;2023-05-07T17:24:32;8.07;;;4.43;;
55672;SDS011;41554;45.366;20.400;2023-05-07T17:26:58;7.30;;;4.90;;
55672;SDS011;41554;45.366;20.400;2023-05-07T17:29:24;6.05;;;4.55;;
55672;SDS011;41554;45.366;20.400;2023-05-07T17:31:51;9.00;;;4.38;;
55672;SDS011;41554;45.366;20.400;2023-05-07T17:34:17;11.75;;;5.15;;
55672;SDS011;41554;45.366;20.400;2023-05-07T17:36:43;12.40;;;5.10;;
55672;SDS011;41554;45.366;20.400;2023-05-07T17:39:10;13.95;;;5.70;;
55672;SDS011;41554;45.366;20.400;2023-05-07T17:41:38;7.45;;;5.22;;
55672;SDS011;41554;45.366;20.400;2023-05-07T17:44:04;7.25;;;4.72;;
55672;SDS011;41554;45.366;20.400;2023-05-07T17:46:33;19.05;;;6.65;;
55672;SDS011;41554;45.366;20.400;2023-05-07T17:48:59;13.07;;;5.78;;
55672;SDS011;41554;45.366;20.400;2023-05-07T17:51:25;9.30;;;5.50;;
55672;SDS011;41554;45.366;20.400;2023-05-07T17:53:53;9.25;;;5.05;;
55672;SDS011;41554;45.366;20.400;2023-05-07T17:56:19;8.15;;;5.40;;
55672;SDS011;41554;45.366;20.400;2023-05-07T18:01:29;10.55;;;5.72;;
55672;SDS011;41554;45.366;20.400;2023-05-07T18:03:58;9.50;;;4.78;;
55672;SDS011;41554;45.366;20.400;2023-05-07T18:06:26;14.30;;;5.30;;
55672;SDS011;41554;45.366;20.400;2023-05-07T18:08:52;8.18;;;6.45;;
55672;SDS011;41554;45.366;20.400;2023-05-07T18:11:19;10.23;;;6.13;;
55672;SDS011;41554;45.366;20.400;2023-05-07T18:13:46;8.75;;;5.38;;
55672;SDS011;41554;45.366;20.400;2023-05-07T18:16:12;11.93;;;6.38;;
55672;SDS011;41554;45.366;20.400;2023-05-07T18:21:10;15.52;;;6.07;;
55672;SDS011;41554;45.366;20.400;2023-05-07T18:23:42;13.30;;;6.32;;
55672;SDS011;41554;45.366;20.400;2023-05-07T18:26:09;15.93;;;5.32;;
55672;SDS011;41554;45.366;20.400;2023-05-07T18:28:35;10.57;;;6.47;;
55672;SDS011;41554;45.366;20.400;2023-05-07T18:31:01;18.13;;;5.90;;
55672;SDS011;41554;45.366;20.400;2023-05-07T18:33:27;6.18;;;4.65;;
55672;SDS011;41554;45.366;20.400;2023-05-07T18:35:53;7.68;;;5.78;;
55672;SDS011;41554;45.366;20.400;2023-05-07T18:38:19;10.07;;;5.88;;
55672;SDS011;41554;45.366;20.400;2023-05-07T18:40:45;7.72;;;5.47;;
55672;SDS011;41554;45.366;20.400;2023-05-07T18:43:12;9.30;;;5.78;;
55672;SDS011;41554;45.366;20.400;2023-05-07T18:45:38;15.73;;;5.60;;
55672;SDS011;41554;45.366;20.400;2023-05-07T18:48:04;11.35;;;5.55;;
55672;SDS011;41554;45.366;20.400;2023-05-07T18:50:31;8.88;;;5.75;;
55672;SDS011;41554;45.366;20.400;2023-05-07T18:52:57;13.73;;;7.70;;
55672;SDS011;41554;45.366;20.400;2023-05-07T18:55:23;13.57;;;7.95;;
55672;SDS011;41554;45.366;20.400;2023-05-07T18:57:49;12.75;;;8.38;;
55672;SDS011;41554;45.366;20.400;2023-05-07T19:00:17;13.75;;;8.13;;
55672;SDS011;41554;45.366;20.400;2023-05-07T19:02:43;9.95;;;7.82;;
55672;SDS011;41554;45.366;20.400;2023-05-07T19:05:09;14.95;;;8.77;;
55672;SDS011;41554;45.366;20.400;2023-05-07T19:07:36;13.88;;;8.55;;
55672;SDS011;41554;45.366;20.400;2023-05-07T19:10:02;9.07;;;7.00;;
55672;SDS011;41554;45.366;20.400;2023-05-07T19:12:28;13.52;;;7.68;;
55672;SDS011;41554;45.366;20.400;2023-05-07T19:14:54;8.60;;;6.60;;
55672;SDS011;41554;45.366;20.400;2023-05-07T19:17:23;13.50;;;6.43;;
55672;SDS011;41554;45.366;20.400;2023-05-07T19:19:49;8.73;;;6.28;;
55672;SDS011;41554;45.366;20.400;2023-05-07T19:22:15;5.35;;;4.40;;
55672;SDS011;41554;45.366;20.400;2023-05-07T19:24:42;10.65;;;6.32;;
55672;SDS011;41554;45.366;20.400;2023-05-07T19:27:08;10.90;;;6.05;;
55672;SDS011;41554;45.366;20.400;2023-05-07T19:29:34;14.63;;;6.15;;
55672;SDS011;41554;45.366;20.400;2023-05-07T19:32:00;8.73;;;5.82;;
55672;SDS011;41554;45.366;20.400;2023-05-07T19:34:26;9.05;;;5.40;;
55672;SDS011;41554;45.366;20.400;2023-05-07T19:36:54;7.78;;;4.95;;
55672;SDS011;41554;45.366;20.400;2023-05-07T19:39:21;6.65;;;5.47;;
55672;SDS011;41554;45.366;20.400;2023-05-07T19:41:47;16.48;;;6.50;;
55672;SDS011;41554;45.366;20.400;2023-05-07T19:44:16;9.07;;;5.53;;
55672;SDS011;41554;45.366;20.400;2023-05-07T19:46:42;15.98;;;6.25;;
55672;SDS011;41554;45.366;20.400;2023-05-07T19:49:10;7.93;;;5.82;;
55672;SDS011;41554;45.366;20.400;2023-05-07T19:51:36;8.98;;;5.38;;
55672;SDS011;41554;45.366;20.400;2023-05-07T19:54:02;8.60;;;6.43;;
55672;SDS011;41554;45.366;20.400;2023-05-07T19:56:28;9.15;;;6.57;;
55672;SDS011;41554;45.366;20.400;2023-05-07T19:58:54;10.48;;;5.97;;
55672;SDS011;41554;45.366;20.400;2023-05-07T20:01:20;10.70;;;5.85;;
55672;SDS011;41554;45.366;20.400;2023-05-07T20:03:46;15.70;;;7.15;;
55672;SDS011;41554;45.366;20.400;2023-05-07T20:06:12;6.82;;;6.13;;
55672;SDS011;41554;45.366;20.400;2023-05-07T20:08:38;8.77;;;6.47;;
55672;SDS011;41554;45.366;20.400;2023-05-07T20:11:04;7.82;;;5.53;;
55672;SDS011;41554;45.366;20.400;2023-05-07T20:13:31;13.35;;;6.40;;
55672;SDS011;41554;45.366;20.400;2023-05-07T20:16:02;8.98;;;7.25;;
55672;SDS011;41554;45.366;20.400;2023-05-07T20:18:31;8.38;;;6.78;;
55672;SDS011;41554;45.366;20.400;2023-05-07T20:20:57;9.48;;;6.95;;
55672;SDS011;41554;45.366;20.400;2023-05-07T20:23:23;8.52;;;6.57;;
55672;SDS011;41554;45.366;20.400;2023-05-07T20:25:49;14.10;;;8.32;;
55672;SDS011;41554;45.366;20.400;2023-05-07T20:28:15;10.57;;;7.97;;
55672;SDS011;41554;45.366;20.400;2023-05-07T20:30:41;9.02;;;7.05;;
55672;SDS011;41554;45.366;20.400;2023-05-07T20:33:07;10.88;;;8.30;;
55672;SDS011;41554;45.366;20.400;2023-05-07T20:35:33;12.15;;;8.40;;
55672;SDS011;41554;45.366;20.400;2023-05-07T20:38:00;11.52;;;7.25;;
55672;SDS011;41554;45.366;20.400;2023-05-07T20:40:26;14.82;;;8.35;;
55672;SDS011;41554;45.366;20.400;2023-05-07T20:42:52;8.55;;;6.47;;
55672;SDS011;41554;45.366;20.400;2023-05-07T20:45:21;9.55;;;7.10;;
55672;SDS011;41554;45.366;20.400;2023-05-07T20:47:49;11.10;;;7.47;;
55672;SDS011;41554;45.366;20.400;2023-05-07T20:50:15;13.80;;;9.75;;
55672;SDS011;41554;45.366;20.400;2023-05-07T20:52:41;8.65;;;7.03;;
55672;SDS011;41554;45.366;20.400;2023-05-07T20:55:07;8.48;;;6.82;;
55672;SDS011;41554;45.366;20.400;2023-05-07T20:57:33;10.55;;;6.68;;
55672;SDS011;41554;45.366;20.400;2023-05-07T20:59:59;11.82;;;8.80;;
55672;SDS011;41554;45.366;20.400;2023-05-07T21:02:28;8.50;;;6.13;;
55672;SDS011;41554;45.366;20.400;2023-05-07T21:04:57;6.85;;;5.43;;
55672;SDS011;41554;45.366;20.400;2023-05-07T21:07:23;11.68;;;7.82;;
55672;SDS011;41554;45.366;20.400;2023-05-07T21:09:49;7.45;;;5.57;;
55672;SDS011;41554;45.366;20.400;2023-05-07T21:12:15;12.85;;;7.25;;
55672;SDS011;41554;45.366;20.400;2023-05-07T21:14:44;10.30;;;7.28;;
55672;SDS011;41554;45.366;20.400;2023-05-07T21:17:10;19.90;;;7.82;;
55672;SDS011;41554;45.366;20.400;2023-05-07T21:19:36;10.77;;;8.23;;
55672;SDS011;41554;45.366;20.400;2023-05-07T21:22:04;20.10;;;8.85;;
55672;SDS011;41554;45.366;20.400;2023-05-07T21:24:30;10.43;;;8.48;;
55672;SDS011;41554;45.366;20.400;2023-05-07T21:26:56;13.63;;;9.35;;
55672;SDS011;41554;45.366;20.400;2023-05-07T21:29:24;20.90;;;11.98;;
55672;SDS011;41554;45.366;20.400;2023-05-07T21:31:51;15.20;;;11.90;;
55672;SDS011;41554;45.366;20.400;2023-05-07T21:34:17;13.98;;;10.90;;
55672;SDS011;41554;45.366;20.400;2023-05-07T21:36:43;16.52;;;11.55;;
55672;SDS011;41554;45.366;20.400;2023-05-07T21:39:09;14.25;;;11.38;;
55672;SDS011;41554;45.366;20.400;2023-05-07T21:41:36;15.80;;;10.63;;
55672;SDS011;41554;45.366;20.400;2023-05-07T21:44:04;13.45;;;10.07;;
55672;SDS011;41554;45.366;20.400;2023-05-07T21:46:31;15.45;;;11.13;;
55672;SDS011;41554;45.366;20.400;2023-05-07T21:48:58;13.68;;;10.20;;
55672;SDS011;41554;45.366;20.400;2023-05-07T21:51:24;12.60;;;9.15;;
55672;SDS011;41554;45.366;20.400;2023-05-07T21:53:50;16.85;;;7.75;;
55672;SDS011;41554;45.366;20.400;2023-05-07T21:56:21;7.47;;;6.65;;
55672;SDS011;41554;45.366;20.400;2023-05-07T21:58:50;16.80;;;6.82;;
55672;SDS011;41554;45.366;20.400;2023-05-07T22:01:16;9.48;;;7.22;;
55672;SDS011;41554;45.366;20.400;2023-05-07T22:03:42;13.60;;;8.32;;
55672;SDS011;41554;45.366;20.400;2023-05-07T22:06:08;8.70;;;6.40;;
55672;SDS011;41554;45.366;20.400;2023-05-07T22:08:34;13.95;;;6.85;;
55672;SDS011;41554;45.366;20.400;2023-05-07T22:11:00;9.82;;;6.82;;
55672;SDS011;41554;45.366;20.400;2023-05-07T22:13:26;15.68;;;8.45;;
55672;SDS011;41554;45.366;20.400;2023-05-07T22:15:52;8.55;;;6.32;;
55672;SDS011;41554;45.366;20.400;2023-05-07T22:18:18;9.48;;;7.22;;
55672;SDS011;41554;45.366;20.400;2023-05-07T22:20:44;9.90;;;7.40;;
55672;SDS011;41554;45.366;20.400;2023-05-07T22:23:10;8.35;;;6.20;;
55672;SDS011;41554;45.366;20.400;2023-05-07T22:25:36;12.05;;;8.00;;
55672;SDS011;41554;45.366;20.400;2023-05-07T22:28:02;9.27;;;6.95;;
55672;SDS011;41554;45.366;20.400;2023-05-07T22:30:28;10.35;;;8.15;;
55672;SDS011;41554;45.366;20.400;2023-05-07T22:32:54;9.68;;;7.53;;
55672;SDS011;41554;45.366;20.400;2023-05-07T22:35:20;10.48;;;7.32;;
55672;SDS011;41554;45.366;20.400;2023-05-07T22:37:48;12.52;;;6.07;;
55672;SDS011;41554;45.366;20.400;2023-05-07T22:43:17;8.13;;;7.10;;
55672;SDS011;41554;45.366;20.400;2023-05-07T22:45:43;10.35;;;7.25;;
55672;SDS011;41554;45.366;20.400;2023-05-07T22:48:09;11.25;;;7.15;;
55672;SDS011;41554;45.366;20.400;2023-05-07T22:50:38;9.68;;;6.05;;
55672;SDS011;41554;45.366;20.400;2023-05-07T22:53:05;7.93;;;6.37;;
55672;SDS011;41554;45.366;20.400;2023-05-07T22:55:31;10.75;;;6.15;;
55672;SDS011;41554;45.366;20.400;2023-05-07T22:57:57;7.82;;;6.15;;
55672;SDS011;41554;45.366;20.400;2023-05-07T23:00:23;14.32;;;7.50;;
55672;SDS011;41554;45.366;20.400;2023-05-07T23:02:49;9.45;;;7.53;;
55672;SDS011;41554;45.366;20.400;2023-05-07T23:05:15;10.60;;;7.80;;
55672;SDS011;41554;45.366;20.400;2023-05-07T23:07:41;9.75;;;6.82;;
55672;SDS011;41554;45.366;20.400;2023-05-07T23:10:07;8.15;;;6.40;;
55672;SDS011;41554;45.366;20.400;2023-05-07T23:12:33;9.48;;;7.18;;
55672;SDS011;41554;45.366;20.400;2023-05-07T23:14:59;12.07;;;7.35;;
55672;SDS011;41554;45.366;20.400;2023-05-07T23:17:25;12.50;;;8.85;;
55672;SDS011;41554;45.366;20.400;2023-05-07T23:19:51;11.23;;;8.82;;
55672;SDS011;41554;45.366;20.400;2023-05-07T23:22:17;9.50;;;7.78;;
55672;SDS011;41554;45.366;20.400;2023-05-07T23:24:43;10.18;;;7.90;;
55672;SDS011;41554;45.366;20.400;2023-05-07T23:27:10;9.15;;;7.50;;
55672;SDS011;41554;45.366;20.400;2023-05-07T23:29:36;11.85;;;8.18;;
55672;SDS011;41554;45.366;20.400;2023-05-07T23:32:02;14.00;;;8.93;;
55672;SDS011;41554;45.366;20.400;2023-05-07T23:34:28;11.75;;;8.65;;
55672;SDS011;41554;45.366;20.400;2023-05-07T23:36:54;10.52;;;8.98;;
55672;SDS011;41554;45.366;20.400;2023-05-07T23:39:20;10.45;;;7.07;;
55672;SDS011;41554;45.366;20.400;2023-05-07T23:41:46;11.15;;;8.45;;
55672;SDS011;41554;45.366;20.400;2023-05-07T23:44:12;9.13;;;6.85;;
55672;SDS011;41554;45.366;20.400;2023-05-07T23:46:40;11.50;;;6.80;;
55672;SDS011;41554;45.366;20.400;2023-05-07T23:49:06;9.52;;;6.80;;
55672;SDS011;41554;45.366;20.400;2023-05-07T23:51:32;12.60;;;6.43;;
55672;SDS011;41554;45.366;20.400;2023-05-07T23:53:59;15.90;;;6.53;;
55672;SDS011;41554;45.366;20.400;2023-05-07T23:56:25;12.52;;;7.45;;
55672;SDS011;41554;45.366;20.400;2023-05-07T23:58:51;12.30;;;8.32;;
